Hovedside
METAR-TAF:

METAR-TAF

Lufthavner :

La Gomera, Spania

breddegrad: 28-01-47N, lengdegrad: 017-12-53W, høyde over havet: 218 m

Gjeldene værobservasjon

Denne rapporten ble laget for 35 minutter siden, klokken 05:30 UTC
Vind 1 kt fra skiftende retning
Temperatur 18°C
Luftfuktighet 83%
Trykk 1016 hPa
Sikt 10 km eller mer
ingen skyer under 1500 m og ingen bygeskyer

METAR: GCGM 190530Z AUTO VRB01KT CAVOK 18/15 Q1016 RMK R09/VRB01KT ARP/VRB01KT

Tid: 07:05 (06:05 UTC)

Varsel

Denne rapporten ble laget for 4 timer og 5 minutter siden, klokken 02:00 UTC
Varsel gyldig fra 19. klokken 03 UTC til 20. klokken 03 UTC
Vind 5 kt fra Vest-nordvest
Sikt 10 km eller mer
Få skyer i en høyde av 2500 ft

TAF: GCGM 190200Z 1903/2003 29005KT 9999 FEW025 TX24/1914Z TN18/1906Z

Værobservasjoner og værvarsel for over 4000 flyplasser (METAR- og TAF-rapporter).

Tilgjengelige stasjoner er representert av de røde og gule prikkene på kartet.

Hold musepekeren over prikken for å se navnet på stasjonen.

Klikk så for å se værobservasjoner og -varsler.

For å forandre kartet kan du klikke på den grønne knappen med svart kryss for å zoome inn, på den grønne knappen med strek for å zoome ut, eller på de grønne pilene for å se tilstøtende kart.


METAR-TAF: